Bezoek onze andere website:

De Wijde Wereld



METAR rapporten vliegvelden

   
EHBK - Maastricht
Gewijzigd: 18-04-2019 14:55
Helder  
Helder  
   Wind: Oosten 0 km/h
Wind: Oosten 0 km/h
Temperatuur: 21°C
Dauwpunt: 5°C
Vochtigheid: 35%
Barometer: 1023 hPa
Bewolking: Clear
Zicht: meer dan 10 km
Bewolking: Helder m
EHBK 181255Z AUTO 10015KT 070V130 9999 NCD 21/05 Q1023 TEMPO 10012G22KT
LSZA - Lugano
Gewijzigd: 18-04-2019 14:50
Nearby Showers, Grotendeels bewolkt  
Nearby Showers, Grotendeels bewolkt  
   Wind: ZZW 0 km/h
Wind: ZZW 0 km/h
Temperatuur: 18°C
Dauwpunt: 6°C
Vochtigheid: 46%
Barometer: 1024 hPa
Bewolking: Mostly Cloudy
Zicht: meer dan 10 km
Bewolking: Licht bewolkt 1828.8 m,
Grotendeels bewolkt 2743.2 m
LSZA 181250Z 21006KT 9999 VCSH FEW060 BKN090 18/06 Q1024 NOSIG
LIRA - Rome
Gewijzigd: 18-04-2019 14:50
Licht bewolkt  
Licht bewolkt  
   Wind: ZZW 0 km/h
Wind: ZZW 0 km/h
Temperatuur: 20°C
Dauwpunt: 7°C
Vochtigheid: 43%
Barometer: 1021 hPa
Bewolking: Few Clouds
Zicht: meer dan 10 km
Bewolking: Licht bewolkt 1524 m
LIRA 181250Z 21008KT 180V240 9999 FEW050 20/07 Q1021
LPFR - Faro
Gewijzigd: 18-04-2019 14:30
Licht bewolkt  
Licht bewolkt  
   Wind: WZW 0 km/h
Wind: WZW 0 km/h
Temperatuur: 16°C
Dauwpunt: 13°C
Vochtigheid: 83%
Barometer: 1014 hPa
Bewolking: Few Clouds
Zicht: meer dan 10 km
Bewolking: Licht bewolkt 609.6 m,
Licht bewolkt 762 m
LPFR 181230Z 25010KT 9999 FEW020 FEW025CB 16/13 Q1014
EBCV - Mons/Bergen
Gewijzigd: 18-04-2019 14:25
Helder  
Helder  
   Wind: Oosten 0 km/h
Wind: Oosten 0 km/h
Temperatuur: 21°C
Dauwpunt: 4°C
Vochtigheid: 33%
Barometer: 1022 hPa
Bewolking: Clear
Zicht: meer dan 10 km
Bewolking: Helder m
EBCV 181225Z AUTO 09011KT 9999 NCD 21/04 Q1022 BLU
EBOS - Oostende
Gewijzigd: 18-04-2019 14:50
Helder  
Helder  
   Wind: Oosten 0 km/h
Wind: Oosten 0 km/h
Temperatuur: 22°C
Dauwpunt: 3°C
Vochtigheid: 29%
Barometer: 1023 hPa
Zicht: meer dan 10 km
Bewolking: Helder m
EBOS 181250Z 08015KT 060V120 CAVOK 22/03 Q1023 NOSIG

Script ontwikkeld door  Saratoga-weather.org Aangepast voor de template door  Weerstation Leuven

Apparatuur in gebruik:

Weerprogramma
Meteohub

Meteohub